createdAt,value
2017-08-15T00:01:11.543Z,3.40
2017-08-15T00:03:37.846Z,4.03
2017-08-15T00:06:04.144Z,3.17
2017-08-15T00:08:31.208Z,3.50
2017-08-15T00:10:57.687Z,3.77
2017-08-15T00:13:24.000Z,3.67
2017-08-15T00:18:23.676Z,3.50
2017-08-15T00:20:50.692Z,3.30
2017-08-15T00:23:16.971Z,3.20
2017-08-15T00:25:43.514Z,3.60
2017-08-15T00:28:09.808Z,4.07
2017-08-15T00:30:36.095Z,3.60
2017-08-15T00:33:02.433Z,3.63
2017-08-15T00:35:28.784Z,3.77
2017-08-15T00:37:55.087Z,3.27
2017-08-15T00:40:21.394Z,3.60
2017-08-15T00:42:47.700Z,3.40
2017-08-15T00:45:14.748Z,3.80
2017-08-15T00:47:41.847Z,3.70
2017-08-15T00:50:08.104Z,2.87
2017-08-15T00:52:34.429Z,3.90
2017-08-15T00:55:00.724Z,4.23
2017-08-15T00:57:27.041Z,3.80
2017-08-15T00:59:53.344Z,4.00
2017-08-15T01:02:20.385Z,3.87
2017-08-15T01:04:47.417Z,3.57
2017-08-15T01:07:13.720Z,3.87
2017-08-15T01:09:40.025Z,3.23
2017-08-15T01:12:06.332Z,4.47
2017-08-15T01:14:32.659Z,4.20
2017-08-15T01:16:58.972Z,4.30
2017-08-15T01:19:25.395Z,3.60
2017-08-15T01:21:51.690Z,3.37
2017-08-15T01:24:18.001Z,3.73
2017-08-15T01:26:44.324Z,3.87
2017-08-15T01:29:10.596Z,4.27
2017-08-15T01:31:36.929Z,3.97
2017-08-15T01:34:03.216Z,3.80
2017-08-15T01:36:29.636Z,4.30
2017-08-15T01:38:56.659Z,4.03
2017-08-15T01:41:23.145Z,4.50
2017-08-15T01:43:49.435Z,4.80
2017-08-15T01:46:15.739Z,4.63
2017-08-15T01:48:42.076Z,4.77
2017-08-15T01:51:08.376Z,4.23
2017-08-15T01:53:34.724Z,4.17
2017-08-15T01:56:01.009Z,4.10
2017-08-15T01:58:27.307Z,4.00
2017-08-15T02:00:53.612Z,3.90
2017-08-15T02:03:19.911Z,4.07
2017-08-15T02:05:46.211Z,4.37
2017-08-15T02:08:13.273Z,3.90
2017-08-15T02:10:39.586Z,4.90
2017-08-15T02:13:06.644Z,3.87
2017-08-15T02:15:33.664Z,4.30
2017-08-15T02:18:00.749Z,4.33
2017-08-15T02:20:27.022Z,3.97
2017-08-15T02:22:53.350Z,5.23
2017-08-15T02:25:19.616Z,4.50
2017-08-15T02:27:46.647Z,4.60
2017-08-15T02:30:13.737Z,4.10
2017-08-15T02:32:40.039Z,4.27
2017-08-15T02:35:07.075Z,4.70
2017-08-15T02:37:34.123Z,4.70
2017-08-15T02:40:00.442Z,4.77
2017-08-15T02:42:26.747Z,5.00
2017-08-15T02:44:53.137Z,4.30
2017-08-15T02:47:19.477Z,5.33
2017-08-15T02:49:45.776Z,4.90
2017-08-15T02:52:12.935Z,5.03
2017-08-15T02:54:39.965Z,4.63
2017-08-15T02:57:06.303Z,5.23
2017-08-15T02:59:32.579Z,6.00
2017-08-15T03:01:58.864Z,5.57
2017-08-15T03:04:25.957Z,4.50
2017-08-15T03:06:52.224Z,5.17
2017-08-15T03:09:18.529Z,5.33
2017-08-15T03:11:44.834Z,5.00
2017-08-15T03:14:11.135Z,5.00
2017-08-15T03:16:37.491Z,5.77
2017-08-15T03:19:03.811Z,5.47
2017-08-15T03:21:30.348Z,5.63
2017-08-15T03:23:56.668Z,5.73
2017-08-15T03:26:23.747Z,5.90
2017-08-15T03:28:50.048Z,5.57
2017-08-15T03:31:17.089Z,5.83
2017-08-15T03:33:43.664Z,5.43
2017-08-15T03:36:09.962Z,4.90
2017-08-15T03:38:36.276Z,5.80
2017-08-15T03:41:02.592Z,5.23
2017-08-15T03:43:28.868Z,5.80
2017-08-15T03:45:55.175Z,5.73
2017-08-15T03:48:22.225Z,5.70
2017-08-15T03:50:49.265Z,6.20
2017-08-15T03:53:15.616Z,5.70
2017-08-15T03:55:41.908Z,5.60
2017-08-15T03:58:09.016Z,5.50
2017-08-15T04:00:35.392Z,5.80
2017-08-15T04:03:01.689Z,6.57
2017-08-15T04:05:28.001Z,5.53
2017-08-15T04:07:54.329Z,6.30
2017-08-15T04:10:20.620Z,5.57
2017-08-15T04:12:46.913Z,5.60
2017-08-15T04:15:13.304Z,6.10
2017-08-15T04:17:40.337Z,5.93
2017-08-15T04:20:07.374Z,6.17
2017-08-15T04:22:33.671Z,5.90
2017-08-15T04:24:59.961Z,6.13
2017-08-15T04:27:26.264Z,6.20
2017-08-15T04:29:53.329Z,6.57
2017-08-15T04:32:19.669Z,6.83
2017-08-15T04:34:45.924Z,5.90
2017-08-15T04:37:12.208Z,6.40
2017-08-15T04:39:39.315Z,6.13
2017-08-15T04:42:05.623Z,6.17
2017-08-15T04:44:31.926Z,6.23
2017-08-15T04:46:58.243Z,6.50
2017-08-15T04:49:25.289Z,6.53
2017-08-15T04:51:51.615Z,6.13
2017-08-15T04:54:18.643Z,7.33
2017-08-15T04:56:45.684Z,8.13
2017-08-15T04:59:12.000Z,6.30
2017-08-15T05:01:38.289Z,7.20
2017-08-15T05:04:04.580Z,5.90
2017-08-15T05:06:30.879Z,5.67
2017-08-15T05:08:57.219Z,5.20
2017-08-15T05:11:23.483Z,4.20
2017-08-15T05:13:49.799Z,4.70
2017-08-15T05:16:16.086Z,4.70
2017-08-15T05:18:42.385Z,5.00
2017-08-15T05:21:08.692Z,4.50
2017-08-15T05:23:34.973Z,4.67
2017-08-15T05:26:01.252Z,3.90
2017-08-15T05:28:27.574Z,4.23
2017-08-15T05:30:54.063Z,3.70
2017-08-15T05:33:20.396Z,3.73
2017-08-15T05:35:46.773Z,4.10
2017-08-15T05:38:13.138Z,3.93
2017-08-15T05:40:40.215Z,4.60
2017-08-15T05:43:06.506Z,3.20
2017-08-15T05:45:32.836Z,4.03
2017-08-15T05:47:59.185Z,3.87
2017-08-15T05:50:25.523Z,3.30
2017-08-15T05:52:51.858Z,3.60
2017-08-15T05:55:18.168Z,3.87
2017-08-15T05:57:44.486Z,3.63
2017-08-15T06:00:11.607Z,3.20
2017-08-15T06:02:37.906Z,3.13
2017-08-15T06:05:04.168Z,4.13
2017-08-15T06:07:30.458Z,2.47
2017-08-15T06:09:56.785Z,3.57
2017-08-15T06:12:23.186Z,3.33
2017-08-15T06:14:50.262Z,2.97
2017-08-15T06:17:16.731Z,3.03
2017-08-15T06:19:43.003Z,2.70
2017-08-15T06:22:10.033Z,3.00
2017-08-15T06:24:37.087Z,3.10
2017-08-15T06:27:04.308Z,3.20
2017-08-15T06:29:30.606Z,2.87
2017-08-15T06:31:56.903Z,2.50
2017-08-15T06:34:23.992Z,3.17
2017-08-15T06:36:50.271Z,2.67
2017-08-15T06:39:17.424Z,3.30
2017-08-15T06:41:44.506Z,2.70
2017-08-15T06:44:11.048Z,3.20
2017-08-15T06:46:37.363Z,2.83
2017-08-15T06:49:03.676Z,3.00
2017-08-15T06:51:30.733Z,2.72
2017-08-15T06:53:57.042Z,2.60
2017-08-15T06:56:24.093Z,3.08
2017-08-15T06:58:50.404Z,2.33
2017-08-15T07:01:17.442Z,2.85
2017-08-15T07:03:43.796Z,2.60
2017-08-15T07:06:10.804Z,2.87
2017-08-15T07:08:37.109Z,2.65
2017-08-15T07:11:03.384Z,2.50
2017-08-15T07:13:30.445Z,2.53
2017-08-15T07:15:57.520Z,2.42
2017-08-15T07:18:23.806Z,2.70
2017-08-15T07:20:51.011Z,2.65
2017-08-15T07:23:17.292Z,2.17
2017-08-15T07:25:43.715Z,2.20
2017-08-15T07:28:10.123Z,2.37
2017-08-15T07:30:36.479Z,2.08
2017-08-15T07:33:02.802Z,2.05
2017-08-15T07:35:29.211Z,2.25
2017-08-15T07:37:55.608Z,2.10
2017-08-15T07:40:21.876Z,2.17
2017-08-15T07:42:48.199Z,2.62
2017-08-15T07:45:14.507Z,1.95
2017-08-15T07:47:40.836Z,2.40
2017-08-15T07:50:07.142Z,2.40
2017-08-15T07:52:34.311Z,3.12
2017-08-15T07:55:00.633Z,2.40
2017-08-15T07:57:27.724Z,2.22
2017-08-15T07:59:54.029Z,2.50
2017-08-15T08:02:20.321Z,2.33
2017-08-15T08:04:47.526Z,2.20
2017-08-15T08:07:13.840Z,2.45
2017-08-15T08:09:40.156Z,2.30
2017-08-15T08:12:06.531Z,2.20
2017-08-15T08:14:32.813Z,2.08
2017-08-15T08:16:59.143Z,2.00
2017-08-15T08:19:25.460Z,2.10
2017-08-15T08:21:52.504Z,2.22
2017-08-15T08:24:19.627Z,1.92
2017-08-15T08:26:46.012Z,2.00
2017-08-15T08:29:12.351Z,2.10
2017-08-15T08:31:38.727Z,1.90
2017-08-15T08:34:05.036Z,1.92
2017-08-15T08:36:31.344Z,2.37
2017-08-15T08:38:57.672Z,2.10
2017-08-15T08:41:24.213Z,1.87
2017-08-15T08:43:50.500Z,2.00
2017-08-15T08:46:17.732Z,1.70
2017-08-15T08:48:44.015Z,1.95
2017-08-15T08:51:10.291Z,1.85
2017-08-15T08:53:36.613Z,1.98
2017-08-15T08:56:03.123Z,2.20
2017-08-15T08:58:29.612Z,2.33
2017-08-15T09:00:56.701Z,1.95
2017-08-15T09:03:22.999Z,1.75
2017-08-15T09:05:50.089Z,1.90
2017-08-15T09:08:16.374Z,1.80
2017-08-15T09:10:43.417Z,2.45
2017-08-15T09:13:09.734Z,1.90
2017-08-15T09:15:36.184Z,2.10
2017-08-15T09:18:02.488Z,2.08
2017-08-15T09:20:29.532Z,2.12
2017-08-15T09:22:56.618Z,1.60
2017-08-15T09:25:22.908Z,1.62
2017-08-15T09:27:49.212Z,1.60
2017-08-15T09:30:15.593Z,1.92
2017-08-15T09:32:42.637Z,1.95
2017-08-15T09:35:09.845Z,2.08
2017-08-15T09:37:36.145Z,2.00
2017-08-15T09:40:02.471Z,1.98
2017-08-15T09:42:28.800Z,2.00
2017-08-15T09:44:55.097Z,2.05
2017-08-15T09:47:22.178Z,1.83
2017-08-15T09:49:48.500Z,1.73
2017-08-15T09:52:14.833Z,2.22
2017-08-15T09:54:41.169Z,2.05
2017-08-15T09:57:07.520Z,2.25
2017-08-15T09:59:33.889Z,2.40
2017-08-15T10:02:00.181Z,2.20
2017-08-15T10:04:26.472Z,2.20
2017-08-15T10:06:53.701Z,2.50
2017-08-15T10:09:20.025Z,2.47
2017-08-15T10:11:47.236Z,2.90
2017-08-15T10:14:13.609Z,2.90
2017-08-15T10:16:39.943Z,2.97
2017-08-15T10:19:06.225Z,3.10
2017-08-15T10:21:32.569Z,3.00
2017-08-15T10:23:58.870Z,3.13
2017-08-15T10:26:25.193Z,2.80
2017-08-15T10:28:52.258Z,2.90
2017-08-15T10:31:18.551Z,2.90
2017-08-15T10:33:45.662Z,3.00
2017-08-15T10:36:11.984Z,3.40
2017-08-15T10:41:00.622Z,3.17
2017-08-15T10:43:26.965Z,3.33
2017-08-15T10:45:53.584Z,3.30
2017-08-15T10:48:20.612Z,3.43
2017-08-15T10:50:47.671Z,3.10
2017-08-15T10:53:13.993Z,4.10
2017-08-15T10:55:41.258Z,3.17
2017-08-15T10:58:07.540Z,3.37
2017-08-15T11:00:33.822Z,3.37
2017-08-15T11:03:00.155Z,3.00
2017-08-15T11:05:26.492Z,3.53
2017-08-15T11:07:52.809Z,3.13
2017-08-15T11:10:19.104Z,3.60
2017-08-15T11:12:45.516Z,3.87
2017-08-15T11:15:11.840Z,3.90
2017-08-15T11:17:38.171Z,3.57
2017-08-15T11:20:04.495Z,3.20
2017-08-15T11:22:30.812Z,5.70
2017-08-15T11:24:57.168Z,3.90
2017-08-15T11:27:23.492Z,3.47
2017-08-15T11:29:49.832Z,4.13
2017-08-15T11:32:16.149Z,3.43
2017-08-15T11:34:42.455Z,3.90
2017-08-15T11:37:08.730Z,3.20
2017-08-15T11:39:35.051Z,3.37
2017-08-15T11:42:01.349Z,3.50
2017-08-15T11:44:27.745Z,3.27
2017-08-15T11:46:54.831Z,3.70
2017-08-15T11:49:21.270Z,3.50
2017-08-15T11:51:47.618Z,3.53
2017-08-15T11:54:14.118Z,3.40
2017-08-15T11:56:40.444Z,3.40
2017-08-15T11:59:06.765Z,3.40
2017-08-15T12:01:33.087Z,3.80
2017-08-15T12:04:00.164Z,4.20
2017-08-15T12:06:26.452Z,3.57
2017-08-15T12:08:53.514Z,3.67
2017-08-15T12:11:20.563Z,3.40
2017-08-15T12:13:46.875Z,3.07
2017-08-15T12:16:13.245Z,3.80
2017-08-15T12:18:39.555Z,3.80
2017-08-15T12:21:06.593Z,3.43
2017-08-15T12:23:33.664Z,3.23
2017-08-15T12:25:59.965Z,3.80
2017-08-15T12:28:26.986Z,3.30
2017-08-15T12:30:53.322Z,3.60
2017-08-15T12:33:19.620Z,3.90
2017-08-15T12:35:45.942Z,3.80
2017-08-15T12:38:12.284Z,3.83
2017-08-15T12:40:38.572Z,4.33
2017-08-15T12:43:05.600Z,4.57
2017-08-15T12:45:31.898Z,3.93
2017-08-15T12:47:58.226Z,6.83
2017-08-15T12:50:24.505Z,4.13
2017-08-15T12:52:50.875Z,3.33
2017-08-15T12:55:17.314Z,4.00
2017-08-15T12:57:43.685Z,3.30
2017-08-15T13:00:09.956Z,2.80
2017-08-15T13:02:36.240Z,2.90
2017-08-15T13:05:03.311Z,2.90
2017-08-15T13:07:29.680Z,3.83
2017-08-15T13:09:56.009Z,3.97
2017-08-15T13:12:22.311Z,5.10
2017-08-15T13:14:48.664Z,4.00
2017-08-15T13:17:14.986Z,4.70
2017-08-15T13:19:41.348Z,5.03
2017-08-15T13:22:07.646Z,5.87
2017-08-15T13:24:33.967Z,4.70
2017-08-15T13:27:00.348Z,5.57
2017-08-15T13:29:26.627Z,4.83
2017-08-15T13:31:52.985Z,6.00
2017-08-15T13:34:19.388Z,5.23
2017-08-15T13:36:45.743Z,4.73
2017-08-15T13:39:12.058Z,4.67
2017-08-15T13:41:38.371Z,4.37
2017-08-15T13:44:04.660Z,5.00
2017-08-15T13:46:30.970Z,4.97
2017-08-15T13:48:57.305Z,5.27
2017-08-15T13:51:24.032Z,6.13
2017-08-15T13:53:50.352Z,5.17
2017-08-15T13:56:16.677Z,5.93
2017-08-15T13:58:42.965Z,5.83
2017-08-15T14:01:09.279Z,5.73
2017-08-15T14:03:35.611Z,5.50
2017-08-15T14:06:01.898Z,5.60
2017-08-15T14:08:28.197Z,4.83
2017-08-15T14:10:54.503Z,5.17
2017-08-15T14:13:20.788Z,4.30
2017-08-15T14:15:47.095Z,5.00
2017-08-15T14:18:13.456Z,4.53
2017-08-15T14:20:39.794Z,4.50
2017-08-15T14:23:06.140Z,4.90
2017-08-15T14:25:32.432Z,4.93
2017-08-15T14:27:58.797Z,4.47
2017-08-15T14:30:25.167Z,4.87
2017-08-15T14:32:52.232Z,5.13
2017-08-15T14:35:18.565Z,4.80
2017-08-15T14:37:45.111Z,4.60
2017-08-15T14:40:11.539Z,4.90
2017-08-15T14:42:37.845Z,5.20
2017-08-15T14:45:04.920Z,4.83
2017-08-15T14:47:31.445Z,4.60
2017-08-15T14:49:57.797Z,4.33
2017-08-15T14:52:24.115Z,4.30
2017-08-15T14:54:50.441Z,4.63
2017-08-15T14:57:16.798Z,4.80
2017-08-15T14:59:43.087Z,5.00
2017-08-15T15:02:09.433Z,5.53
2017-08-15T15:04:35.783Z,5.10
2017-08-15T15:07:02.164Z,5.00
2017-08-15T15:09:28.629Z,5.33
2017-08-15T15:11:54.939Z,4.33
2017-08-15T15:14:22.188Z,4.67
2017-08-15T15:16:49.227Z,4.90
2017-08-15T15:19:16.296Z,6.67
2017-08-15T15:21:42.568Z,5.07
2017-08-15T15:24:08.888Z,4.80
2017-08-15T15:26:35.187Z,5.37
2017-08-15T15:29:01.593Z,5.10
2017-08-15T15:31:28.688Z,4.83
2017-08-15T15:33:55.023Z,6.00
2017-08-15T15:36:21.424Z,5.30
2017-08-15T15:38:47.774Z,6.10
2017-08-15T15:41:14.251Z,5.47
2017-08-15T15:43:40.597Z,5.00
2017-08-15T15:46:06.968Z,5.70
2017-08-15T15:48:33.261Z,5.10
2017-08-15T15:51:00.460Z,5.90
2017-08-15T15:53:26.727Z,5.30
2017-08-15T15:55:53.788Z,5.60
2017-08-15T15:58:20.093Z,5.93
2017-08-15T16:00:46.404Z,5.57
2017-08-15T16:03:12.784Z,5.23
2017-08-15T16:05:39.817Z,4.83
2017-08-15T16:08:06.884Z,6.07
2017-08-15T16:10:33.252Z,6.00
2017-08-15T16:12:59.660Z,5.10
2017-08-15T16:15:26.010Z,6.13
2017-08-15T16:17:52.379Z,6.37
2017-08-15T16:20:18.727Z,5.37
2017-08-15T16:22:45.772Z,5.10
2017-08-15T16:25:12.836Z,5.20
2017-08-15T16:27:39.189Z,6.10
2017-08-15T16:30:05.641Z,5.90
2017-08-15T16:32:32.036Z,6.57
2017-08-15T16:34:58.365Z,6.60
2017-08-15T16:37:24.785Z,6.60
2017-08-15T16:39:52.030Z,6.60
2017-08-15T16:42:19.097Z,7.10
2017-08-15T16:44:45.567Z,7.50
2017-08-15T16:47:12.054Z,7.20
2017-08-15T16:49:38.377Z,7.50
2017-08-15T16:52:05.400Z,7.50
2017-08-15T16:54:32.535Z,6.53
2017-08-15T16:56:58.825Z,6.90
2017-08-15T16:59:25.160Z,7.37
2017-08-15T17:01:51.520Z,7.53
2017-08-15T17:04:18.045Z,7.70
2017-08-15T17:06:44.378Z,7.23
2017-08-15T17:09:10.741Z,8.80
2017-08-15T17:11:37.372Z,8.70
2017-08-15T17:14:03.848Z,8.00
2017-08-15T17:16:30.352Z,8.67
2017-08-15T17:18:56.672Z,8.80
2017-08-15T17:21:22.978Z,7.97
2017-08-15T17:23:49.350Z,11.10
2017-08-15T17:26:15.704Z,9.00
2017-08-15T17:28:41.997Z,8.60
2017-08-15T17:31:08.305Z,8.97
2017-08-15T17:33:34.780Z,9.03
2017-08-15T17:36:01.375Z,9.10
2017-08-15T17:38:27.716Z,8.97
2017-08-15T17:40:54.073Z,8.73
2017-08-15T17:43:21.168Z,8.87
2017-08-15T17:45:47.569Z,8.20
2017-08-15T17:48:13.925Z,8.30
2017-08-15T17:50:40.337Z,8.10
2017-08-15T17:53:06.900Z,8.10
2017-08-15T17:55:33.228Z,8.37
2017-08-15T17:57:59.557Z,9.10
2017-08-15T18:00:25.901Z,10.67
2017-08-15T18:02:52.231Z,9.97
2017-08-15T18:05:18.565Z,10.20
2017-08-15T18:07:44.875Z,10.80
2017-08-15T18:10:11.465Z,9.73
2017-08-15T18:12:38.537Z,8.90
2017-08-15T18:15:04.848Z,10.03
2017-08-15T18:17:31.988Z,10.53
2017-08-15T18:19:58.428Z,9.63
2017-08-15T18:22:24.732Z,9.37
2017-08-15T18:24:51.103Z,10.20
2017-08-15T18:27:18.172Z,10.27
2017-08-15T18:29:44.500Z,9.70
2017-08-15T18:32:11.000Z,9.40
2017-08-15T18:34:38.068Z,9.33
2017-08-15T18:37:04.397Z,10.70
2017-08-15T18:39:31.495Z,8.00
2017-08-15T18:41:57.899Z,10.50
2017-08-15T18:44:24.215Z,9.23
2017-08-15T18:46:50.545Z,9.40
2017-08-15T18:49:16.853Z,10.43
2017-08-15T18:51:43.914Z,8.80
2017-08-15T18:54:10.985Z,10.43
2017-08-15T18:56:37.319Z,9.90
2017-08-15T18:59:03.659Z,10.57
2017-08-15T19:01:29.968Z,10.70
2017-08-15T19:03:56.338Z,9.20
2017-08-15T19:06:22.713Z,9.90
2017-08-15T19:08:49.810Z,11.10
2017-08-15T19:11:16.176Z,10.60
2017-08-15T19:13:43.293Z,9.90
2017-08-15T19:16:09.714Z,12.03
2017-08-15T19:18:36.080Z,11.10
2017-08-15T19:21:02.467Z,12.90
2017-08-15T19:23:28.862Z,11.97
2017-08-15T19:25:55.286Z,12.20
2017-08-15T19:28:22.464Z,12.93
2017-08-15T19:30:48.808Z,12.20
2017-08-15T19:33:15.209Z,12.63
2017-08-15T19:35:41.751Z,12.63
2017-08-15T19:38:08.135Z,12.57
2017-08-15T19:40:34.788Z,13.90
2017-08-15T19:43:02.004Z,12.50
2017-08-15T19:45:28.441Z,13.20
2017-08-15T19:47:54.909Z,13.40
2017-08-15T19:50:22.083Z,14.40
2017-08-15T19:52:48.625Z,13.77
2017-08-15T19:55:15.021Z,13.00
2017-08-15T19:57:42.270Z,13.33
2017-08-15T20:00:09.452Z,13.77
2017-08-15T20:02:36.521Z,14.50
2017-08-15T20:05:02.857Z,14.47
2017-08-15T20:07:29.235Z,15.00
2017-08-15T20:09:55.583Z,14.70
2017-08-15T20:12:22.635Z,14.73
2017-08-15T20:14:49.702Z,14.80
2017-08-15T20:17:16.051Z,15.20
2017-08-15T20:19:42.415Z,15.00
2017-08-15T20:22:08.724Z,15.87
2017-08-15T20:24:35.044Z,14.30
2017-08-15T20:27:01.461Z,15.33
2017-08-15T20:29:27.768Z,15.70
2017-08-15T20:31:54.915Z,14.80
2017-08-15T20:34:21.364Z,16.20
2017-08-15T20:36:47.904Z,17.00
2017-08-15T20:39:14.229Z,18.93
2017-08-15T20:41:40.592Z,17.40
2017-08-15T20:44:07.196Z,18.13
2017-08-15T20:46:33.488Z,17.00
2017-08-15T20:49:00.506Z,16.10
2017-08-15T20:51:26.896Z,15.00
2017-08-15T20:53:54.000Z,16.73
2017-08-15T20:56:20.313Z,16.57
2017-08-15T20:58:46.648Z,15.07
2017-08-15T21:01:12.984Z,14.33
2017-08-15T21:03:39.298Z,15.40
2017-08-15T21:06:05.653Z,14.27
2017-08-15T21:08:32.017Z,15.30
2017-08-15T21:10:59.090Z,12.60
2017-08-15T21:13:25.436Z,15.73
2017-08-15T21:15:51.719Z,15.67
2017-08-15T21:18:18.792Z,14.80
2017-08-15T21:20:45.096Z,14.93
2017-08-15T21:23:12.163Z,15.13
2017-08-15T21:25:38.477Z,17.00
2017-08-15T21:28:05.516Z,17.17
2017-08-15T21:30:31.900Z,17.67
2017-08-15T21:32:58.849Z,19.63
2017-08-15T21:35:25.222Z,18.07
2017-08-15T21:37:51.580Z,17.90
2017-08-15T21:40:17.925Z,19.80
2017-08-15T21:42:44.230Z,16.60
2017-08-15T21:45:10.564Z,18.07
2017-08-15T21:47:37.749Z,16.20
2017-08-15T21:50:04.088Z,16.43
2017-08-15T21:52:30.415Z,14.50
2017-08-15T21:54:56.681Z,14.40
2017-08-15T21:57:23.903Z,13.90
2017-08-15T21:59:50.207Z,13.70
2017-08-15T22:02:20.396Z,13.47
2017-08-15T22:04:46.751Z,13.17
2017-08-15T22:07:13.024Z,11.90
2017-08-15T22:09:39.323Z,12.43
2017-08-15T22:12:06.116Z,13.40
2017-08-15T22:14:33.224Z,12.33
2017-08-15T22:16:59.543Z,13.37
2017-08-15T22:19:25.849Z,12.57
2017-08-15T22:21:52.191Z,12.17
2017-08-15T22:24:18.470Z,11.60
2017-08-15T22:26:45.537Z,11.70
2017-08-15T22:29:12.554Z,12.33
2017-08-15T22:31:38.860Z,13.60
2017-08-15T22:34:05.472Z,12.60
2017-08-15T22:36:31.919Z,12.00
2017-08-15T22:38:58.343Z,12.20
2017-08-15T22:41:24.616Z,13.33
2017-08-15T22:43:50.915Z,12.97
2017-08-15T22:46:17.244Z,12.27
2017-08-15T22:48:43.556Z,11.50
2017-08-15T22:51:09.855Z,10.50
2017-08-15T22:53:36.136Z,11.10
2017-08-15T22:56:02.449Z,11.90
2017-08-15T22:58:28.756Z,12.07
2017-08-15T23:00:55.826Z,12.80
2017-08-15T23:03:22.144Z,11.77
2017-08-15T23:05:49.225Z,11.73
2017-08-15T23:08:15.526Z,11.90
2017-08-15T23:10:41.860Z,11.47
2017-08-15T23:13:08.492Z,12.30
2017-08-15T23:15:34.828Z,11.00
2017-08-15T23:18:01.119Z,10.90
2017-08-15T23:20:27.434Z,10.67
2017-08-15T23:22:53.812Z,12.87
2017-08-15T23:25:20.846Z,11.63
2017-08-15T23:27:48.039Z,10.73
2017-08-15T23:30:14.380Z,11.37
2017-08-15T23:32:40.652Z,10.93
2017-08-15T23:35:06.939Z,12.60
2017-08-15T23:37:33.266Z,10.87
2017-08-15T23:39:59.585Z,11.67
2017-08-15T23:42:25.883Z,11.57
2017-08-15T23:44:52.903Z,11.03
2017-08-15T23:47:19.191Z,10.80
2017-08-15T23:49:45.640Z,10.50
2017-08-15T23:52:11.944Z,11.20
2017-08-15T23:54:38.224Z,10.97
2017-08-15T23:57:04.599Z,10.07
2017-08-15T23:59:30.864Z,10.40
